Time;durP1;ratioP1;P1;durP2;ratioP2;P2;SDS_P1;SDS_P2;PMS_P1;PMS_P2;Temp;Humidity;BMP_temperature;BMP_pressure;BME280_temperature;BME280_humidity;BME280_pressure;Samples;Min_cycle;Max_cycle;Signal;HPM_P1;HPM_P2
2022/05/18 00:00:17;;;;;;;7.80;2.40;;;13.80;99.90;;;;;;5079517;28;20036;-75
2022/05/18 00:02:43;;;;;;;8.60;2.10;;;13.80;99.90;;;;;;5078899;28;20036;-76
2022/05/18 00:05:09;;;;;;;8.82;2.20;;;13.80;99.90;;;;;;5078774;28;20058;-75
2022/05/18 00:07:34;;;;;;;6.65;2.15;;;13.70;99.90;;;;;;5078674;28;20065;-76
2022/05/18 00:10:00;;;;;;;5.53;2.08;;;13.70;99.90;;;;;;5079248;28;20032;-75
2022/05/18 00:12:26;;;;;;;6.35;1.92;;;13.70;99.90;;;;;;5079671;28;20036;-76
2022/05/18 00:14:52;;;;;;;4.50;1.63;;;13.70;99.90;;;;;;5080825;28;20024;-75
2022/05/18 00:17:18;;;;;;;4.82;1.55;;;13.70;99.90;;;;;;5074872;28;20038;-75
2022/05/18 00:19:44;;;;;;;4.90;1.52;;;13.70;99.90;;;;;;5075197;28;20032;-76
2022/05/18 00:22:10;;;;;;;2.78;1.17;;;13.60;99.90;;;;;;5073404;28;20043;-75
2022/05/18 00:24:36;;;;;;;7.15;1.70;;;13.60;99.90;;;;;;5081679;28;20028;-75
2022/05/18 00:27:03;;;;;;;6.47;1.38;;;13.60;99.90;;;;;;5080930;28;20457;-74
2022/05/18 00:29:33;;;;;;;4.03;1.30;;;13.50;99.90;;;;;;5079169;28;20077;-76
2022/05/18 00:31:59;;;;;;;4.82;1.15;;;13.50;99.90;;;;;;5081939;28;20040;-76
2022/05/18 00:34:25;;;;;;;3.85;1.00;;;13.40;99.90;;;;;;5081798;28;20027;-75
2022/05/18 00:36:51;;;;;;;4.53;1.20;;;13.40;99.90;;;;;;5080387;28;20119;-75
2022/05/18 00:39:17;;;;;;;1.30;0.57;;;13.40;99.90;;;;;;5076582;28;20100;-75
2022/05/18 00:41:42;;;;;;;2.05;1.00;;;13.40;99.90;;;;;;5075361;28;20445;-75
2022/05/18 00:44:08;;;;;;;4.72;1.00;;;13.40;99.90;;;;;;5081782;28;20066;-74
2022/05/18 00:46:34;;;;;;;2.90;1.52;;;13.40;99.90;;;;;;5080986;28;20027;-75
2022/05/18 00:49:03;;;;;;;3.92;0.90;;;13.40;99.90;;;;;;5082922;28;20077;-75
2022/05/18 00:51:47;;;;;;;2.85;0.88;;;13.30;99.90;;;;;;5077923;28;20031;-76
2022/05/18 00:54:22;;;;;;;4.72;0.80;;;13.30;99.90;;;;;;5080452;28;20027;-76
2022/05/18 00:57:04;;;;;;;2.53;0.73;;;13.20;99.90;;;;;;5081710;28;20032;-76
2022/05/18 00:59:35;;;;;;;3.63;0.90;;;13.10;99.90;;;;;;5083146;28;20059;-76
2022/05/18 01:02:02;;;;;;;3.28;0.70;;;13.00;99.90;;;;;;5080707;28;20048;-76
2022/05/18 01:04:28;;;;;;;2.03;1.00;;;12.90;99.90;;;;;;5079243;28;20030;-76
2022/05/18 01:07:03;;;;;;;2.25;0.95;;;12.80;99.90;;;;;;5080496;28;20036;-76
2022/05/18 01:09:35;;;;;;;4.25;1.10;;;12.70;99.90;;;;;;5080988;28;20016;-76
2022/05/18 01:12:02;;;;;;;2.35;1.23;;;12.50;99.90;;;;;;5080096;28;20026;-75
2022/05/18 01:14:34;;;;;;;2.25;1.13;;;12.40;99.90;;;;;;5082968;28;20061;-76
2022/05/18 01:17:00;;;;;;;1.27;0.90;;;12.30;99.90;;;;;;5072123;28;20049;-76
2022/05/18 01:19:36;;;;;;;6.10;1.77;;;12.20;99.90;;;;;;5082172;28;20512;-75
2022/05/18 01:22:17;;;;;;;1.90;0.82;;;12.20;99.90;;;;;;5074812;28;20055;-75
2022/05/18 01:25:04;;;;;;;3.17;1.13;;;12.20;99.90;;;;;;5076144;28;20078;-74
2022/05/18 01:27:29;;;;;;;1.45;0.80;;;12.20;99.90;;;;;;5092423;28;20564;-76
2022/05/18 01:29:55;;;;;;;1.02;0.52;;;12.10;99.90;;;;;;5082340;28;20281;-76
2022/05/18 01:32:21;;;;;;;5.18;1.25;;;12.10;99.90;;;;;;5077191;28;20077;-75
2022/05/18 01:34:47;;;;;;;1.70;0.75;;;12.00;99.90;;;;;;5077998;28;20039;-74
2022/05/18 01:37:14;;;;;;;1.40;0.90;;;11.90;99.90;;;;;;5077577;28;20044;-76
2022/05/18 01:39:51;;;;;;;6.00;1.35;;;11.80;99.90;;;;;;5072048;28;20089;-76
2022/05/18 01:42:29;;;;;;;2.08;0.82;;;11.80;99.90;;;;;;5080128;28;20068;-76
2022/05/18 01:44:55;;;;;;;6.18;1.05;;;11.60;99.90;;;;;;5082928;28;20103;-75
2022/05/18 01:47:21;;;;;;;4.80;1.05;;;11.60;99.90;;;;;;5075608;28;20119;-76
2022/05/18 01:49:48;;;;;;;4.05;1.13;;;11.60;99.90;;;;;;5065609;28;20033;-75
2022/05/18 01:52:15;;;;;;;1.00;0.90;;;11.50;99.90;;;;;;5077749;28;20511;-76
2022/05/18 01:54:43;;;;;;;4.93;1.00;;;11.50;99.90;;;;;;5081190;28;20031;-75
2022/05/18 01:57:09;;;;;;;1.63;0.90;;;11.50;99.90;;;;;;5078655;28;20032;-75
2022/05/18 01:59:36;;;;;;;4.03;0.77;;;11.50;99.90;;;;;;5080015;28;20078;-75
2022/05/18 02:02:02;;;;;;;1.95;0.98;;;11.50;99.90;;;;;;5071242;28;20052;-75
2022/05/18 02:04:27;;;;;;;3.78;0.90;;;11.50;99.90;;;;;;5079029;28;20479;-75
2022/05/18 02:06:53;;;;;;;3.40;0.82;;;11.50;99.90;;;;;;5078330;28;20049;-76
2022/05/18 02:09:20;;;;;;;4.10;0.90;;;11.40;99.90;;;;;;5079389;28;20024;-76
2022/05/18 02:11:46;;;;;;;4.65;0.98;;;11.40;99.90;;;;;;5080155;28;20365;-75
2022/05/18 02:14:12;;;;;;;2.47;0.80;;;11.40;99.90;;;;;;5078888;28;20035;-76
2022/05/18 02:16:38;;;;;;;2.35;0.80;;;11.30;99.90;;;;;;5080716;28;20078;-75
2022/05/18 02:19:04;;;;;;;1.50;0.98;;;11.30;99.90;;;;;;5079071;28;20029;-75
2022/05/18 02:21:30;;;;;;;1.55;0.88;;;11.20;99.90;;;;;;5080551;28;20423;-76
2022/05/18 02:23:55;;;;;;;3.10;1.00;;;11.10;99.90;;;;;;5081290;28;20078;-76
2022/05/18 02:26:21;;;;;;;3.45;1.30;;;11.20;99.90;;;;;;5077543;28;20059;-76
2022/05/18 02:28:47;;;;;;;5.18;1.13;;;11.20;99.90;;;;;;5079424;28;20635;-76
2022/05/18 02:31:13;;;;;;;3.58;1.05;;;11.10;99.90;;;;;;5078375;28;20064;-76
2022/05/18 02:33:39;;;;;;;1.58;1.00;;;11.00;99.90;;;;;;5081054;28;20024;-76
2022/05/18 02:36:07;;;;;;;3.17;1.00;;;11.00;99.90;;;;;;5080260;28;20130;-76
2022/05/18 02:38:36;;;;;;;3.60;1.00;;;10.90;99.90;;;;;;5080104;28;20568;-76
2022/05/18 02:41:02;;;;;;;4.20;0.70;;;10.80;99.90;;;;;;5081371;28;20044;-75
2022/05/18 02:43:28;;;;;;;3.75;1.17;;;10.80;99.90;;;;;;5080085;28;20032;-75
2022/05/18 02:46:09;;;;;;;1.77;0.88;;;10.80;99.90;;;;;;5081157;28;20396;-76
2022/05/18 02:48:35;;;;;;;2.73;0.90;;;10.80;99.90;;;;;;5077770;28;20506;-76
2022/05/18 02:51:00;;;;;;;3.78;0.90;;;10.70;99.90;;;;;;5080268;28;20036;-76
2022/05/18 02:53:26;;;;;;;4.30;1.00;;;10.70;99.90;;;;;;5080158;28;20028;-76
2022/05/18 02:56:07;;;;;;;4.00;1.20;;;10.60;99.90;;;;;;5080025;28;20115;-75
2022/05/18 02:58:33;;;;;;;6.03;1.13;;;10.70;99.90;;;;;;5079477;28;20514;-76
2022/05/18 03:01:00;;;;;;;5.80;1.42;;;10.60;99.90;;;;;;5077143;28;20036;-76
2022/05/18 03:03:27;;;;;;;3.25;0.80;;;10.60;99.90;;;;;;5078674;28;20403;-76
2022/05/18 03:05:53;;;;;;;3.47;1.00;;;10.60;99.90;;;;;;5080191;28;20051;-76
2022/05/18 03:08:18;;;;;;;5.13;1.52;;;10.60;99.90;;;;;;5079370;28;20062;-76
2022/05/18 03:10:44;;;;;;;3.42;0.70;;;10.50;99.90;;;;;;5078005;28;20058;-76
2022/05/18 03:13:10;;;;;;;2.97;0.95;;;10.50;99.90;;;;;;5077209;28;20032;-76
2022/05/18 03:15:36;;;;;;;4.93;1.23;;;10.40;99.90;;;;;;5074022;28;20093;-76
2022/05/18 03:18:01;;;;;;;4.93;1.02;;;10.30;99.90;;;;;;5076701;28;20032;-76
2022/05/18 03:25:55;;;;;;;3.60;0.95;;;10.20;99.90;;;;;;5068868;28;19954;-76
2022/05/18 03:28:21;;;;;;;3.80;1.30;;;10.10;99.90;;;;;;5077428;28;20286;-76
2022/05/18 03:30:46;;;;;;;5.20;1.70;;;10.10;99.90;;;;;;5080295;28;20566;-75
2022/05/18 03:33:12;;;;;;;;;;;10.00;99.90;;;;;;5064707;28;20666;-76
2022/05/18 03:35:37;;;;;;;;;;;10.00;99.90;;;;;;5079897;28;20391;-76
2022/05/18 03:38:05;;;;;;;;;;;10.00;99.90;;;;;;5080801;28;19962;-76
2022/05/18 03:40:37;;;;;;;;;;;10.00;99.90;;;;;;5080309;28;20026;-76
2022/05/18 03:43:03;;;;;;;;;;;9.90;99.90;;;;;;5072367;28;19920;-76
2022/05/18 03:45:29;;;;;;;;;;;9.90;99.90;;;;;;5078455;28;20390;-76
2022/05/18 03:47:55;;;;;;;;;;;9.90;99.90;;;;;;5072062;28;19916;-76
2022/05/18 03:50:20;;;;;;;;;;;9.80;99.90;;;;;;5072176;28;19923;-76
2022/05/18 03:52:46;;;;;;;4.35;1.05;;;9.80;99.90;;;;;;5078609;28;20014;-76
2022/05/18 03:55:12;;;;;;;5.13;1.00;;;9.70;99.90;;;;;;5083185;28;20040;-75
2022/05/18 03:57:38;;;;;;;3.43;1.07;;;9.70;99.90;;;;;;5085763;28;20024;-76
2022/05/18 04:00:04;;;;;;;;;;;9.60;99.90;;;;;;5085454;28;19912;-76
2022/05/18 04:02:30;;;;;;;;;;;9.60;99.90;;;;;;5080280;28;20512;-76
2022/05/18 04:04:55;;;;;;;;;;;9.60;99.90;;;;;;5085728;28;19908;-76
2022/05/18 04:07:21;;;;;;;;;;;9.60;99.90;;;;;;5080382;28;19912;-76
2022/05/18 04:09:47;;;;;;;5.82;1.20;;;9.50;99.90;;;;;;5082326;28;20337;-76
2022/05/18 04:12:13;;;;;;;4.32;1.40;;;9.50;99.90;;;;;;5082269;28;20569;-76
2022/05/18 04:14:39;;;;;;;5.75;1.85;;;9.50;99.90;;;;;;5077136;28;20103;-75
2022/05/18 04:17:05;;;;;;;2.20;1.15;;;9.50;99.90;;;;;;5076103;28;20034;-76
2022/05/18 04:19:30;;;;;;;4.32;1.48;;;9.50;99.90;;;;;;5077510;28;20052;-76
2022/05/18 04:21:56;;;;;;;3.67;1.85;;;9.50;99.90;;;;;;5080466;28;20044;-76
2022/05/18 04:24:21;;;;;;;5.13;1.73;;;9.50;99.90;;;;;;5085904;28;20031;-76
2022/05/18 04:26:47;;;;;;;7.38;1.60;;;9.50;99.90;;;;;;5078997;28;20032;-76
2022/05/18 04:29:13;;;;;;;4.10;1.73;;;9.60;99.90;;;;;;5082886;28;20106;-76
2022/05/18 04:31:39;;;;;;;5.32;1.60;;;9.60;99.90;;;;;;5081237;28;20513;-76
2022/05/18 04:34:04;;;;;;;7.47;1.77;;;9.60;99.90;;;;;;5083470;28;20027;-76
2022/05/18 04:36:30;;;;;;;5.00;2.15;;;9.70;99.90;;;;;;5079816;28;20266;-76
2022/05/18 04:38:55;;;;;;;5.97;2.17;;;9.60;99.90;;;;;;5071613;28;20099;-76
2022/05/18 04:41:21;;;;;;;4.78;1.77;;;9.60;99.90;;;;;;5079598;28;20043;-75
2022/05/18 04:43:47;;;;;;;7.68;2.97;;;9.60;99.90;;;;;;5084989;28;20456;-76
2022/05/18 04:46:12;;;;;;;6.03;1.77;;;9.60;99.90;;;;;;5070693;28;20029;-76
2022/05/18 04:48:40;;;;;;;6.60;2.83;;;9.60;99.90;;;;;;5078054;28;20032;-76
2022/05/18 04:51:05;;;;;;;9.18;2.95;;;9.60;99.90;;;;;;5077537;28;20028;-75
2022/05/18 04:53:33;;;;;;;12.48;3.80;;;9.70;99.90;;;;;;5081602;28;20028;-74
2022/05/18 04:55:58;;;;;;;8.75;3.63;;;9.80;99.90;;;;;;5084347;28;20437;-76
2022/05/18 04:58:24;;;;;;;10.82;3.63;;;9.90;99.90;;;;;;5083943;28;20024;-76
2022/05/18 05:00:57;;;;;;;11.15;3.72;;;10.00;99.90;;;;;;5080372;28;20039;-76
2022/05/18 05:03:23;;;;;;;7.63;3.33;;;10.10;99.90;;;;;;5075965;28;20044;-75
2022/05/18 05:05:48;;;;;;;12.30;3.45;;;10.10;99.90;;;;;;5082412;28;20497;-75
2022/05/18 05:08:14;;;;;;;11.67;3.50;;;10.20;99.90;;;;;;5075475;28;20291;-76
2022/05/18 05:10:40;;;;;;;8.50;4.15;;;10.20;99.90;;;;;;5079744;28;20947;-76
2022/05/18 05:13:06;;;;;;;;;;;10.20;99.90;;;;;;5082754;28;20032;-76
2022/05/18 05:15:31;;;;;;;;;;;10.20;99.90;;;;;;5081221;28;20491;-76
2022/05/18 05:17:57;;;;;;;;;;;10.30;99.90;;;;;;5072410;28;19912;-76
2022/05/18 05:20:22;;;;;;;;;;;10.30;99.90;;;;;;5080054;28;19957;-76
2022/05/18 05:22:48;;;;;;;;;;;10.40;99.90;;;;;;5073875;28;20015;-76
2022/05/18 05:25:14;;;;;;;;;;;10.40;99.90;;;;;;5083535;28;20358;-75
2022/05/18 05:27:40;;;;;;;;;;;10.50;99.90;;;;;;5080206;28;20461;-75
2022/05/18 05:30:07;;;;;;;10.30;3.65;;;10.50;99.90;;;;;;5078310;28;19912;-76
2022/05/18 05:32:33;;;;;;;11.00;4.63;;;10.60;99.90;;;;;;5075577;28;20118;-75
2022/05/18 05:34:59;;;;;;;10.85;4.85;;;10.60;99.90;;;;;;5077093;28;20027;-76
2022/05/18 05:37:25;;;;;;;12.45;5.95;;;10.70;99.90;;;;;;5074714;28;20024;-76
2022/05/18 05:39:50;;;;;;;22.60;8.00;;;10.80;99.90;;;;;;5075604;28;20081;-76
2022/05/18 05:42:16;;;;;;;19.20;8.25;;;10.90;99.90;;;;;;5070220;28;20470;-76
2022/05/18 05:44:42;;;;;;;17.42;8.25;;;11.00;99.90;;;;;;5075392;28;20036;-76
2022/05/18 05:47:09;;;;;;;18.00;7.90;;;11.10;99.90;;;;;;5076236;28;20112;-76
2022/05/18 05:49:34;;;;;;;14.75;6.57;;;11.10;99.90;;;;;;5074145;28;20103;-75
2022/05/18 05:52:00;;;;;;;13.82;6.70;;;11.20;99.90;;;;;;5072299;28;20028;-76
2022/05/18 05:54:29;;;;;;;14.50;5.82;;;11.20;99.90;;;;;;5076565;28;20024;-76
2022/05/18 05:56:55;;;;;;;13.65;6.80;;;11.30;99.90;;;;;;5074450;28;20032;-76
2022/05/18 05:59:21;;;;;;;14.68;7.25;;;11.40;99.90;;;;;;5073937;28;20067;-76
2022/05/18 06:01:47;;;;;;;14.77;7.35;;;11.50;99.90;;;;;;5072574;28;20043;-76
2022/05/18 06:04:14;;;;;;;9.85;5.72;;;11.60;99.90;;;;;;5074068;28;20032;-75
2022/05/18 06:06:40;;;;;;;15.48;6.03;;;11.60;99.90;;;;;;5069445;28;20016;-77
2022/05/18 06:09:09;;;;;;;14.77;6.90;;;11.70;99.90;;;;;;5075583;28;20035;-76
2022/05/18 06:11:37;;;;;;;17.85;7.65;;;11.80;99.90;;;;;;5071435;28;20040;-76
2022/05/18 06:14:03;;;;;;;14.57;7.60;;;11.80;99.90;;;;;;5080322;28;20035;-76
2022/05/18 06:16:29;;;;;;;14.15;7.13;;;11.90;99.90;;;;;;5070057;28;20872;-76
2022/05/18 06:18:55;;;;;;;16.70;8.05;;;11.90;99.90;;;;;;5079932;28;20052;-78
2022/05/18 06:21:21;;;;;;;15.27;7.47;;;12.10;99.90;;;;;;5076176;28;20577;-77
2022/05/18 06:23:46;;;;;;;11.98;7.20;;;12.20;99.90;;;;;;5078105;28;20020;-77
2022/05/18 06:26:12;;;;;;;12.15;7.45;;;12.30;99.90;;;;;;5079533;28;20059;-77
2022/05/18 06:28:40;;;;;;;17.95;7.45;;;12.50;99.90;;;;;;5074694;28;20032;-76
2022/05/18 06:31:06;;;;;;;12.18;7.18;;;12.60;99.90;;;;;;5076862;28;20142;-76
2022/05/18 06:33:32;;;;;;;11.13;6.25;;;12.60;99.90;;;;;;5068689;28;20037;-76
2022/05/18 06:35:58;;;;;;;20.80;11.43;;;12.70;99.90;;;;;;5070632;28;20517;-77
2022/05/18 06:38:23;;;;;;;19.52;11.10;;;12.80;99.90;;;;;;5076490;28;20040;-76
2022/05/18 06:43:33;;;;;;;11.85;7.20;;;12.90;99.90;;;;;;5062694;28;20073;-76
2022/05/18 06:46:01;;;;;;;13.90;6.75;;;13.20;99.90;;;;;;5064883;28;20032;-76
2022/05/18 06:48:28;;;;;;;13.95;7.40;;;13.30;99.90;;;;;;5064866;28;20209;-76
2022/05/18 06:50:53;;;;;;;15.13;8.32;;;13.60;99.90;;;;;;5070051;28;20549;-76
2022/05/18 06:53:19;;;;;;;13.85;7.53;;;13.80;99.90;;;;;;5072898;28;20032;-76
2022/05/18 06:55:44;;;;;;;12.77;6.95;;;14.00;99.90;;;;;;5071191;28;20074;-77
2022/05/18 06:58:10;;;;;;;9.35;6.03;;;14.30;99.90;;;;;;5076761;28;20040;-75
2022/05/18 07:00:36;;;;;;;11.93;5.45;;;14.60;99.90;;;;;;5075604;28;20028;-77
2022/05/18 07:03:01;;;;;;;12.10;6.80;;;14.90;99.90;;;;;;5074559;28;20055;-77
2022/05/18 07:05:27;;;;;;;;;;;15.30;99.90;;;;;;5073178;28;20329;-77
2022/05/18 07:07:52;;;;;;;;;;;15.80;99.90;;;;;;5076712;28;19916;-77
2022/05/18 07:10:18;;;;;;;;;;;16.30;99.90;;;;;;5075190;28;19928;-77
2022/05/18 07:12:44;;;;;;;;;;;16.50;99.40;;;;;;5076184;28;19920;-77
2022/05/18 07:15:09;;;;;;;;;;;16.90;98.50;;;;;;5073789;28;19979;-77
2022/05/18 07:17:35;;;;;;;;;;;17.10;98.70;;;;;;5080009;28;20015;-77
2022/05/18 07:20:01;;;;;;;;;;;17.30;97.60;;;;;;5067363;28;19916;-76
2022/05/18 07:22:26;;;;;;;;;;;17.50;96.00;;;;;;5064201;28;19946;-77
2022/05/18 07:24:52;;;;;;;;;;;17.30;94.90;;;;;;5065879;28;20387;-77
2022/05/18 07:27:17;;;;;;;;;;;17.20;95.50;;;;;;5064998;28;19922;-77
2022/05/18 07:29:43;;;;;;;;;;;17.10;97.00;;;;;;5071852;28;20054;-77
2022/05/18 07:32:09;;;;;;;;;;;17.30;97.90;;;;;;5067427;28;20463;-77
2022/05/18 07:34:35;;;;;;;;;;;17.30;96.00;;;;;;5073365;28;20438;-77
2022/05/18 07:37:00;;;;;;;;;;;17.30;95.60;;;;;;5066655;28;19933;-77
2022/05/18 07:39:28;;;;;;;;;;;17.40;96.50;;;;;;5071700;28;19924;-77
2022/05/18 07:41:58;;;;;;;;;;;17.70;94.60;;;;;;5069876;28;19924;-77
2022/05/18 07:44:24;;;;;;;;;;;19.50;90.20;;;;;;5068149;28;19919;-77
2022/05/18 07:46:50;;;;;;;;;;;20.50;84.80;;;;;;5070611;28;19926;-77
2022/05/18 07:49:15;;;;;;;;;;;23.90;75.70;;;;;;5082284;28;19920;-77
2022/05/18 07:51:41;;;;;;;;;;;25.50;66.60;;;;;;5078630;28;19916;-76
2022/05/18 07:54:06;;;;;;;;;;;25.40;64.10;;;;;;5070746;28;19970;-77
2022/05/18 07:56:34;;;;;;;;;;;28.20;58.50;;;;;;5073807;28;20361;-77
2022/05/18 07:59:00;;;;;;;7.95;1.38;;;28.70;51.70;;;;;;5074295;28;19985;-77
2022/05/18 08:01:26;;;;;;;3.30;1.30;;;29.10;53.30;;;;;;5079372;28;20076;-77
2022/05/18 08:03:52;;;;;;;6.47;2.10;;;28.80;50.10;;;;;;5081827;28;20110;-76
2022/05/18 08:06:17;;;;;;;5.88;1.70;;;28.70;51.50;;;;;;5077366;28;20446;-77
2022/05/18 08:08:43;;;;;;;5.80;1.23;;;28.10;52.50;;;;;;5081694;28;20114;-77
2022/05/18 08:16:37;;;;;;;7.78;1.40;;;30.60;47.20;;;;;;5088695;28;20165;-77
2022/05/18 08:19:04;;;;;;;7.50;1.50;;;29.70;44.90;;;;;;5080115;28;20468;-76
2022/05/18 08:21:29;;;;;;;5.50;1.30;;;29.40;46.90;;;;;;5080832;28;20063;-77
2022/05/18 08:23:55;;;;;;;4.57;1.48;;;29.00;45.10;;;;;;5074564;28;20068;-77
2022/05/18 08:26:21;;;;;;;6.32;1.60;;;27.40;54.30;;;;;;5079641;28;20390;-77
2022/05/18 08:28:46;;;;;;;3.65;1.23;;;28.00;50.50;;;;;;5081415;28;20501;-74
2022/05/18 08:31:12;;;;;;;6.90;1.60;;;29.10;48.40;;;;;;5080150;28;20036;-74
2022/05/18 08:33:39;;;;;;;5.45;1.30;;;29.80;49.20;;;;;;5065728;28;20028;-75
2022/05/18 08:36:07;;;;;;;4.80;1.45;;;29.80;47.20;;;;;;5078606;28;20020;-74
2022/05/18 08:38:36;;;;;;;4.55;1.10;;;29.20;47.50;;;;;;5074271;28;20035;-74
2022/05/18 08:41:13;;;;;;;8.13;1.55;;;30.60;47.80;;;;;;5065597;28;20491;-73
2022/05/18 08:43:42;;;;;;;7.03;1.20;;;31.80;44.60;;;;;;5068263;28;20376;-74
2022/05/18 08:46:17;;;;;;;4.03;1.13;;;32.20;39.50;;;;;;5077334;28;20368;-74
2022/05/18 08:48:56;;;;;;;5.18;1.10;;;32.20;43.40;;;;;;5074771;28;20387;-74
2022/05/18 08:51:48;;;;;;;4.93;1.58;;;31.30;41.70;;;;;;5067694;28;20483;-73
2022/05/18 08:54:19;;;;;;;2.95;1.00;;;30.30;47.60;;;;;;5079049;28;20425;-73
2022/05/18 08:56:45;;;;;;;4.72;1.15;;;30.20;45.70;;;;;;5075930;28;20054;-73
2022/05/18 08:59:19;;;;;;;7.47;1.55;;;30.60;42.00;;;;;;5071117;28;20023;-74
2022/05/18 09:01:47;;;;;;;4.10;1.25;;;31.20;42.00;;;;;;5069090;28;20056;-73
2022/05/18 09:04:37;;;;;;;9.40;1.48;;;31.50;46.70;;;;;;5072605;28;20020;-74
2022/05/18 09:07:07;;;;;;;6.38;1.05;;;32.10;42.20;;;;;;5072484;28;20028;-74
2022/05/18 09:12:40;;;;;;;6.55;1.45;;;32.00;36.90;;;;;;5073780;28;20223;-74
2022/05/18 09:15:08;;;;;;;4.57;1.20;;;32.80;41.10;;;;;;5070439;28;20036;-74
2022/05/18 09:17:54;;;;;;;6.05;1.20;;;32.90;41.10;;;;;;5066540;28;20039;-74
2022/05/18 09:20:49;;;;;;;5.05;1.00;;;32.50;34.40;;;;;;5075948;28;20430;-74
2022/05/18 09:23:33;;;;;;;4.93;1.00;;;31.60;39.10;;;;;;5076852;28;20456;-74
2022/05/18 09:26:26;;;;;;;4.57;0.90;;;31.70;39.70;;;;;;5090576;27;20046;-73
2022/05/18 09:29:05;;;;;;;5.00;0.82;;;31.30;38.30;;;;;;5077261;28;20032;-74
2022/05/18 09:31:43;;;;;;;3.65;0.77;;;32.00;38.20;;;;;;5073828;28;20032;-74
2022/05/18 09:34:36;;;;;;;5.43;1.08;;;31.50;37.70;;;;;;5071394;28;20945;-74
2022/05/18 09:37:26;;;;;;;4.50;0.90;;;31.90;37.40;;;;;;5062561;28;20050;-74
2022/05/18 09:40:06;;;;;;;4.38;1.40;;;31.80;41.10;;;;;;5075726;28;20020;-73
2022/05/18 09:42:37;;;;;;;3.70;1.13;;;31.70;37.30;;;;;;5072824;28;20109;-73
2022/05/18 09:45:14;;;;;;;4.57;1.15;;;31.40;39.50;;;;;;5074185;28;20031;-73
2022/05/18 09:47:53;;;;;;;4.47;1.20;;;31.50;42.30;;;;;;5076274;28;20202;-73
2022/05/18 09:50:19;;;;;;;4.70;1.10;;;30.40;41.50;;;;;;5077373;28;20067;-74
2022/05/18 09:52:47;;;;;;;3.95;1.40;;;29.90;42.70;;;;;;5077886;28;20273;-73
2022/05/18 09:55:17;;;;;;;7.70;1.27;;;30.70;47.20;;;;;;5071726;28;20254;-73
2022/05/18 09:57:50;;;;;;;6.88;1.33;;;30.60;46.10;;;;;;5074230;28;20065;-74
2022/05/18 10:00:28;;;;;;;5.28;1.50;;;31.50;43.50;;;;;;5078011;28;20031;-73
2022/05/18 10:08:43;;;;;;;4.53;1.00;;;30.10;45.50;;;;;;5048490;28;20135;-75
2022/05/18 10:11:16;;;;;;;5.05;1.23;;;30.40;46.70;;;;;;5081496;28;20067;-75
2022/05/18 10:13:53;;;;;;;4.50;1.05;;;30.60;40.20;;;;;;5082645;28;20031;-76
2022/05/18 10:16:37;;;;;;;3.88;1.15;;;30.90;43.80;;;;;;5080513;28;20457;-75
2022/05/18 10:19:05;;;;;;;6.18;1.13;;;31.00;38.90;;;;;;5071186;28;20038;-75
2022/05/18 10:21:34;;;;;;;5.60;0.90;;;31.40;46.40;;;;;;5078032;28;20107;-75
2022/05/18 10:24:05;;;;;;;5.93;1.23;;;30.90;36.60;;;;;;5078040;28;20059;-76
2022/05/18 10:26:38;;;;;;;3.85;1.38;;;30.70;45.50;;;;;;5073812;28;20491;-75
2022/05/18 10:29:13;;;;;;;6.57;1.10;;;30.20;42.60;;;;;;5081203;28;20046;-76
2022/05/18 10:31:46;;;;;;;2.63;0.90;;;30.50;47.40;;;;;;5071813;28;20037;-75
2022/05/18 10:34:25;;;;;;;6.65;1.35;;;31.00;43.20;;;;;;5074651;28;20871;-75
2022/05/18 10:36:56;;;;;;;5.35;1.05;;;30.90;41.90;;;;;;5082637;28;20065;-75
2022/05/18 10:39:48;;;;;;;5.07;1.50;;;31.20;39.90;;;;;;5081684;28;20028;-76
2022/05/18 10:42:20;;;;;;;6.88;1.58;;;30.20;39.90;;;;;;5076245;28;20048;-75
2022/05/18 10:44:45;;;;;;;5.40;1.45;;;30.20;39.40;;;;;;5077170;28;20032;-75
2022/05/18 10:47:18;;;;;;;6.43;1.70;;;30.30;45.90;;;;;;5079170;28;20089;-76
2022/05/18 10:49:44;;;;;;;6.90;1.23;;;30.00;39.10;;;;;;5080833;28;20024;-75
2022/05/18 10:52:12;;;;;;;3.92;1.02;;;30.40;38.70;;;;;;5081271;28;20040;-75
2022/05/18 10:54:39;;;;;;;5.03;1.08;;;30.60;44.70;;;;;;5082089;28;20169;-76
2022/05/18 10:57:15;;;;;;;3.78;0.98;;;30.60;40.60;;;;;;5080578;28;20554;-74
2022/05/18 10:59:59;;;;;;;6.30;1.05;;;30.20;41.90;;;;;;5074391;28;20031;-75
2022/05/18 11:02:42;;;;;;;4.03;1.10;;;30.00;43.90;;;;;;5077162;28;20043;-76
2022/05/18 11:05:08;;;;;;;6.72;1.15;;;30.00;44.70;;;;;;5077321;28;20397;-75
2022/05/18 11:07:33;;;;;;;3.65;0.93;;;30.50;44.00;;;;;;5075914;28;20582;-76
2022/05/18 11:09:59;;;;;;;4.72;1.05;;;30.90;41.00;;;;;;5079174;28;20491;-75
2022/05/18 11:12:31;;;;;;;2.95;0.70;;;31.00;40.70;;;;;;5074477;28;20076;-76
2022/05/18 11:15:03;;;;;;;;;;;30.40;44.20;;;;;;5081129;28;20122;-75
2022/05/18 11:17:44;;;;;;;2.25;0.95;;;30.40;42.80;;;;;;5077218;28;19912;-75
2022/05/18 11:20:29;;;;;;;7.93;1.23;;;30.50;41.30;;;;;;5070490;28;20487;-75
2022/05/18 11:23:16;;;;;;;4.32;1.00;;;30.70;40.70;;;;;;5072721;28;20067;-74
2022/05/18 11:26:11;;;;;;;7.20;1.25;;;30.40;39.10;;;;;;5073302;28;20067;-75
2022/05/18 11:28:55;;;;;;;5.40;0.90;;;30.00;42.60;;;;;;5058012;28;20043;-75
2022/05/18 11:31:39;;;;;;;4.45;0.95;;;29.20;42.70;;;;;;5061358;28;20030;-75
2022/05/18 11:34:04;;;;;;;3.42;0.80;;;28.60;42.50;;;;;;5072958;28;20624;-75
2022/05/18 11:37:00;;;;;;;2.45;0.70;;;28.50;45.00;;;;;;5079733;28;20320;-75
2022/05/18 11:39:41;;;;;;;3.50;0.80;;;27.80;39.60;;;;;;5078067;28;20038;-74
2022/05/18 11:42:19;;;;;;;4.97;1.30;;;27.10;44.60;;;;;;5080429;28;20040;-75
2022/05/18 11:45:00;;;;;;;3.28;0.75;;;26.90;48.60;;;;;;5077546;28;20414;-75
2022/05/18 11:47:45;;;;;;;2.37;0.70;;;26.40;49.60;;;;;;5080257;28;20042;-75
2022/05/18 11:50:33;;;;;;;3.28;0.70;;;26.50;46.70;;;;;;5077055;28;20194;-74
2022/05/18 11:53:26;;;;;;;4.18;0.88;;;26.20;50.10;;;;;;5075994;28;20028;-76
2022/05/18 11:56:06;;;;;;;2.20;0.82;;;26.20;47.30;;;;;;5076473;28;20122;-75
2022/05/18 11:59:30;;;;;;;5.10;1.27;;;26.30;51.90;;;;;;5079532;28;20127;-75
2022/05/18 12:02:15;;;;;;;5.10;0.95;;;26.40;48.10;;;;;;5066850;28;20134;-75
2022/05/18 12:04:50;;;;;;;4.25;0.75;;;26.60;52.30;;;;;;5076117;28;20162;-75
2022/05/18 12:07:22;;;;;;;4.10;0.63;;;26.40;47.20;;;;;;5079097;28;20606;-74
2022/05/18 12:10:01;;;;;;;2.72;0.50;;;26.20;44.60;;;;;;5071491;28;20108;-76
2022/05/18 12:12:45;;;;;;;4.82;0.80;;;26.10;45.20;;;;;;5077360;28;20085;-74
2022/05/18 12:15:42;;;;;;;4.90;0.80;;;26.00;51.50;;;;;;5079724;28;20036;-75
2022/05/18 12:19:02;;;;;;;4.18;0.65;;;25.90;53.50;;;;;;5072358;28;20032;-75
2022/05/18 12:21:42;;;;;;;4.20;0.80;;;25.80;48.80;;;;;;4651043;28;9999596;-74
2022/05/18 12:24:09;;;;;;;5.05;1.00;;;25.40;47.20;;;;;;5072291;28;20415;-75
2022/05/18 12:26:39;;;;;;;6.50;1.20;;;25.30;51.40;;;;;;5081077;28;20063;-75
2022/05/18 12:29:07;;;;;;;4.88;0.95;;;25.00;50.30;;;;;;5075374;28;20062;-75
2022/05/18 12:31:34;;;;;;;5.88;1.08;;;24.90;52.20;;;;;;5077813;28;20024;-74
2022/05/18 12:34:05;;;;;;;5.07;1.02;;;24.50;52.30;;;;;;5064599;28;20032;-75
2022/05/18 12:36:52;;;;;;;4.63;0.90;;;24.50;53.60;;;;;;5067160;28;20093;-74
2022/05/18 12:39:19;;;;;;;1.98;0.52;;;24.40;58.90;;;;;;5080774;28;20283;-75
2022/05/18 12:41:49;;;;;;;4.55;0.93;;;24.30;50.10;;;;;;5080742;28;20036;-74
2022/05/18 12:44:25;;;;;;;6.70;0.88;;;24.30;51.10;;;;;;5079909;28;20415;-74
2022/05/18 12:47:09;;;;;;;4.55;0.90;;;24.50;49.60;;;;;;5067923;28;20514;-74
2022/05/18 12:49:41;;;;;;;8.60;1.00;;;24.90;48.30;;;;;;5076365;28;20039;-75
2022/05/18 12:52:39;;;;;;;4.78;0.70;;;25.10;44.50;;;;;;5076301;28;20067;-75
2022/05/18 12:55:31;;;;;;;4.40;0.80;;;25.10;36.70;;;;;;5075578;28;20059;-75
2022/05/18 12:58:09;;;;;;;3.17;0.70;;;24.80;42.80;;;;;;5053009;28;20052;-74
2022/05/18 13:00:56;;;;;;;2.42;0.75;;;24.80;43.70;;;;;;5081130;28;20033;-74
2022/05/18 13:03:37;;;;;;;4.22;0.85;;;24.50;48.00;;;;;;5065416;28;20044;-74
2022/05/18 13:06:30;;;;;;;2.53;0.77;;;24.70;44.60;;;;;;5079145;28;20024;-75
2022/05/18 13:09:26;;;;;;;7.13;0.82;;;24.80;43.30;;;;;;5060986;28;20044;-75
2022/05/18 13:12:22;;;;;;;4.40;0.60;;;24.70;44.20;;;;;;5077404;28;20047;-75
2022/05/18 13:15:02;;;;;;;3.40;0.43;;;24.90;49.70;;;;;;5086278;28;20044;-74
2022/05/18 13:17:46;;;;;;;3.28;0.60;;;24.90;43.50;;;;;;5086077;28;20386;-75
2022/05/18 13:20:41;;;;;;;2.55;0.70;;;24.50;40.30;;;;;;5081676;28;20024;-75
2022/05/18 13:23:08;;;;;;;4.40;0.52;;;24.60;47.60;;;;;;5080526;28;20522;-74
2022/05/18 13:25:37;;;;;;;2.30;0.80;;;24.90;46.40;;;;;;5065768;28;20028;-75
2022/05/18 13:28:06;;;;;;;3.00;0.80;;;25.10;39.30;;;;;;5081228;28;20038;-74
2022/05/18 13:30:38;;;;;;;4.15;0.93;;;25.30;39.60;;;;;;5081565;28;20390;-75
2022/05/18 13:33:05;;;;;;;3.38;0.63;;;24.90;39.60;;;;;;5080733;28;20028;-76
2022/05/18 13:35:32;;;;;;;3.72;0.80;;;24.70;46.50;;;;;;5079429;28;20224;-75
2022/05/18 13:38:13;;;;;;;6.65;1.13;;;24.60;49.20;;;;;;5078371;28;20628;-73